METAR AND TAF INFORMATION
METAR FOR GCHI
ADDS - METARS form results

(1559 UTC 05 August 2020)
Data provider http://aviationweather.gov/metar/data/
 
METAR text: GCHI 051530Z 34022KT 9999 FEW025 27/18 Q1015
Conditions at: GCHI (HIERRO AIRPORT , ES) observed 1530 UTC 05 August 2020
Temperature: 27.0°C (81°F)
Dewpoint: 18.0°C (64°F) [RH = 58%]
Pressure (altimeter): 29.97 inches Hg (1015.0 mb)
Winds: from the NNW (340 degrees) at 25 MPH (22 knots; 11.3 m/s)
Visibility: 6 or more miles (10+ km)
Ceiling: at least 12,000 feet AGL
Clouds: few clouds at 2500 feet AGL
Weather: no significant weather observed at this time

METAR text: GCHI 051500Z 35018KT 9999 FEW025 26/19 Q1015
Conditions at: GCHI (HIERRO AIRPORT , ES) observed 1500 UTC 05 August 2020
Temperature: 26.0°C (79°F)
Dewpoint: 19.0°C (66°F) [RH = 65%]
Pressure (altimeter): 29.97 inches Hg (1015.0 mb)
Winds: from the N (350 degrees) at 21 MPH (18 knots; 9.3 m/s)
Visibility: 6 or more miles (10+ km)
Ceiling: at least 12,000 feet AGL
Clouds: few clouds at 2500 feet AGL
Weather: no significant weather observed at this time

Forecast for: GCHI (HIERRO AIRPORT , ES)
Text: TAF GCHI 051400Z 0515/0615 35018KT 9999 SCT020 TX25/0614Z TN22/0606Z
Forecast period: 1500 UTC 05 August 2020 to 1500 UTC 06 August 2020
Forecast type: FROM: standard forecast or significant change
Winds: from the N (350 degrees) at 21 MPH (18 knots; 9.3 m/s)
Visibility: 6 or more miles 10+ km)
Ceiling: at least 12,000 feet AGL
Clouds: scattered clouds at 2000 feet AGL
Weather: no significant weather forecast for this period

 AIRPORT MAP

 RUNWAY INFORMATION
Runway 16 Runway length 4101 ft Runway width 98 ft
Runway elevation 71 ft Runway displaced threshold 0 ft Runway heading 153
Runway 34 Runway length 4101 ft Runway width 98 ft
Runway elevation 103 ft Runway displaced threshold 0 ft Runway heading 333

 AIRPORT FREQUENCIES
Type A/D Name CANARIAS A Frequency 126.1 MHZ
Type GND Name GND Frequency 121.6 MHZ
Type TWR Name TWR Frequency 118.1 MHZ

 AIRPORT NEAR NAVIGATION AIDS
Type NDB Name Hierro Frequency 376 KHZ
Type DME Name Hierro Frequency 113200 KHZ



Powered by Virtual Airlines Manager [v2.6.2]